sensor_id;sensor_type;location;lat;lon;timestamp;pressure;altitude;pressure_sealevel;temperature;humidity
81243;BME280;70716;50.074;14.496;2023-08-30T10:16:12;98243.44;;;17.28;65.96
81243;BME280;70716;50.074;14.496;2023-08-30T10:18:41;98239.28;;;17.11;65.70
81243;BME280;70716;50.074;14.496;2023-08-30T10:21:11;98231.88;;;17.15;65.68
81243;BME280;70716;50.074;14.496;2023-08-30T10:23:38;98238.56;;;17.14;67.13
81243;BME280;70716;50.074;14.496;2023-08-30T10:26:04;98232.34;;;16.91;65.75
81243;BME280;70716;50.074;14.496;2023-08-30T10:28:31;98237.88;;;16.65;68.56
81243;BME280;70716;50.074;14.496;2023-08-30T10:30:57;98237.63;;;16.73;68.67
81243;BME280;70716;50.074;14.496;2023-08-30T10:33:23;98234.94;;;16.80;67.95
81243;BME280;70716;50.074;14.496;2023-08-30T10:35:51;98235.72;;;16.81;67.57
81243;BME280;70716;50.074;14.496;2023-08-30T10:38:27;98229.84;;;16.82;67.05
81243;BME280;70716;50.074;14.496;2023-08-30T10:40:55;98233.88;;;16.89;67.27
81243;BME280;70716;50.074;14.496;2023-08-30T10:43:33;98233.47;;;16.87;66.36
81243;BME280;70716;50.074;14.496;2023-08-30T10:46:03;98241.44;;;16.65;67.45
81243;BME280;70716;50.074;14.496;2023-08-30T10:48:40;98233.34;;;16.53;67.14
81243;BME280;70716;50.074;14.496;2023-08-30T10:51:20;98229.06;;;16.29;67.65
81243;BME280;70716;50.074;14.496;2023-08-30T10:54:17;98245.34;;;16.64;67.36
81243;BME280;70716;50.074;14.496;2023-08-30T10:56:53;98232.19;;;16.80;67.35
81243;BME280;70716;50.074;14.496;2023-08-30T10:59:20;98231.19;;;16.92;65.69
81243;BME280;70716;50.074;14.496;2023-08-30T11:01:47;98228.16;;;16.71;65.32
81243;BME280;70716;50.074;14.496;2023-08-30T11:04:15;98222.53;;;16.94;64.42
81243;BME280;70716;50.074;14.496;2023-08-30T11:06:45;98229.69;;;16.98;65.49
81243;BME280;70716;50.074;14.496;2023-08-30T11:09:14;98227.53;;;16.84;65.31
81243;BME280;70716;50.074;14.496;2023-08-30T11:11:40;98225.56;;;16.85;65.98
81243;BME280;70716;50.074;14.496;2023-08-30T11:14:09;98232.09;;;17.03;65.31
81243;BME280;70716;50.074;14.496;2023-08-30T11:16:35;98221.16;;;17.07;64.17
81243;BME280;70716;50.074;14.496;2023-08-30T11:19:02;98220.25;;;17.29;64.19
81243;BME280;70716;50.074;14.496;2023-08-30T11:21:32;98218.78;;;17.42;63.00
81243;BME280;70716;50.074;14.496;2023-08-30T11:23:58;98217.19;;;17.71;62.82
81243;BME280;70716;50.074;14.496;2023-08-30T11:26:24;98217.03;;;18.01;61.82
81243;BME280;70716;50.074;14.496;2023-08-30T11:28:49;98210.19;;;18.29;60.60
81243;BME280;70716;50.074;14.496;2023-08-30T11:31:24;98213.50;;;18.01;60.20
81243;BME280;70716;50.074;14.496;2023-08-30T11:33:56;98208.91;;;18.15;61.59
81243;BME280;70716;50.074;14.496;2023-08-30T11:36:26;98209.16;;;18.51;63.48
81243;BME280;70716;50.074;14.496;2023-08-30T11:38:55;98203.97;;;18.42;59.43
81243;BME280;70716;50.074;14.496;2023-08-30T11:41:22;98200.88;;;18.51;61.23
81243;BME280;70716;50.074;14.496;2023-08-30T11:43:48;98194.38;;;18.80;61.05
81243;BME280;70716;50.074;14.496;2023-08-30T11:46:14;98201.50;;;18.85;59.18
81243;BME280;70716;50.074;14.496;2023-08-30T11:48:43;98206.19;;;18.77;59.48
81243;BME280;70716;50.074;14.496;2023-08-30T11:51:09;98204.56;;;18.69;59.00
81243;BME280;70716;50.074;14.496;2023-08-30T11:53:36;98196.66;;;18.64;58.59
81243;BME280;70716;50.074;14.496;2023-08-30T11:56:02;98197.69;;;18.49;58.64
81243;BME280;70716;50.074;14.496;2023-08-30T11:58:38;98203.06;;;18.24;58.67
81243;BME280;70716;50.074;14.496;2023-08-30T12:01:04;98200.22;;;18.13;60.02
81243;BME280;70716;50.074;14.496;2023-08-30T12:03:31;98201.66;;;18.48;60.44
81243;BME280;70716;50.074;14.496;2023-08-30T12:06:08;98187.28;;;18.79;61.82
81243;BME280;70716;50.074;14.496;2023-08-30T12:08:34;98183.41;;;18.95;59.27
81243;BME280;70716;50.074;14.496;2023-08-30T12:11:00;98192.09;;;18.97;59.46
81243;BME280;70716;50.074;14.496;2023-08-30T12:13:32;98187.38;;;19.01;59.74
81243;BME280;70716;50.074;14.496;2023-08-30T12:15:58;98194.09;;;19.10;58.33
81243;BME280;70716;50.074;14.496;2023-08-30T12:18:25;98190.09;;;18.90;58.42
81243;BME280;70716;50.074;14.496;2023-08-30T12:23:25;98189.63;;;18.77;59.19
81243;BME280;70716;50.074;14.496;2023-08-30T12:26:07;98181.78;;;18.87;59.89
81243;BME280;70716;50.074;14.496;2023-08-30T12:28:37;98192.13;;;19.04;61.43
81243;BME280;70716;50.074;14.496;2023-08-30T12:31:03;98183.78;;;18.93;59.78
81243;BME280;70716;50.074;14.496;2023-08-30T12:33:36;98186.97;;;18.95;60.16
81243;BME280;70716;50.074;14.496;2023-08-30T12:36:01;98179.03;;;18.87;57.33
81243;BME280;70716;50.074;14.496;2023-08-30T12:38:29;98184.44;;;18.65;59.96
81243;BME280;70716;50.074;14.496;2023-08-30T12:40:59;98179.69;;;18.66;60.46
81243;BME280;70716;50.074;14.496;2023-08-30T12:43:25;98173.47;;;18.79;59.26
81243;BME280;70716;50.074;14.496;2023-08-30T12:45:53;98183.44;;;19.02;58.39
81243;BME280;70716;50.074;14.496;2023-08-30T12:48:20;98175.16;;;19.12;57.10
81243;BME280;70716;50.074;14.496;2023-08-30T12:50:47;98176.22;;;18.18;58.74
81243;BME280;70716;50.074;14.496;2023-08-30T12:53:13;98180.34;;;18.45;60.10
81243;BME280;70716;50.074;14.496;2023-08-30T12:55:38;98172.63;;;18.72;58.53
81243;BME280;70716;50.074;14.496;2023-08-30T12:58:06;98171.06;;;18.71;56.57
81243;BME280;70716;50.074;14.496;2023-08-30T13:00:33;98165.63;;;18.85;57.27
81243;BME280;70716;50.074;14.496;2023-08-30T13:02:59;98168.06;;;19.11;56.90
81243;BME280;70716;50.074;14.496;2023-08-30T13:05:25;98157.84;;;19.19;57.73
81243;BME280;70716;50.074;14.496;2023-08-30T13:07:50;98165.78;;;19.31;56.95
81243;BME280;70716;50.074;14.496;2023-08-30T13:10:16;98158.25;;;19.21;55.84
81243;BME280;70716;50.074;14.496;2023-08-30T13:12:42;98160.28;;;19.49;59.66
81243;BME280;70716;50.074;14.496;2023-08-30T13:15:08;98160.72;;;19.65;56.24
81243;BME280;70716;50.074;14.496;2023-08-30T13:17:34;98163.50;;;19.76;55.80
81243;BME280;70716;50.074;14.496;2023-08-30T13:20:00;98160.75;;;20.08;55.58
81243;BME280;70716;50.074;14.496;2023-08-30T13:22:27;98159.91;;;20.32;54.31
81243;BME280;70716;50.074;14.496;2023-08-30T13:24:52;98158.72;;;20.33;53.17
81243;BME280;70716;50.074;14.496;2023-08-30T13:27:19;98164.66;;;20.32;53.06
81243;BME280;70716;50.074;14.496;2023-08-30T13:29:44;98167.47;;;20.10;54.09
81243;BME280;70716;50.074;14.496;2023-08-30T13:32:10;98157.19;;;19.86;53.62
81243;BME280;70716;50.074;14.496;2023-08-30T13:34:35;98156.81;;;19.91;55.37
81243;BME280;70716;50.074;14.496;2023-08-30T13:37:00;98151.66;;;19.86;55.59
81243;BME280;70716;50.074;14.496;2023-08-30T13:39:26;98155.59;;;19.67;54.18
81243;BME280;70716;50.074;14.496;2023-08-30T13:41:51;98142.97;;;19.56;52.66
81243;BME280;70716;50.074;14.496;2023-08-30T13:44:17;98140.94;;;19.38;54.65
81243;BME280;70716;50.074;14.496;2023-08-30T13:46:45;98144.84;;;19.30;55.21
81243;BME280;70716;50.074;14.496;2023-08-30T13:49:13;98149.59;;;19.37;56.07
81243;BME280;70716;50.074;14.496;2023-08-30T13:51:39;98146.06;;;19.36;56.68
81243;BME280;70716;50.074;14.496;2023-08-30T13:54:04;98143.66;;;19.24;56.42
81243;BME280;70716;50.074;14.496;2023-08-30T13:56:30;98140.91;;;19.28;56.01
81243;BME280;70716;50.074;14.496;2023-08-30T13:59:00;98132.56;;;19.10;55.45
81243;BME280;70716;50.074;14.496;2023-08-30T14:01:25;98140.44;;;19.11;58.57
81243;BME280;70716;50.074;14.496;2023-08-30T14:03:51;98140.06;;;19.06;58.96
81243;BME280;70716;50.074;14.496;2023-08-30T14:06:17;98142.78;;;18.95;58.69
81243;BME280;70716;50.074;14.496;2023-08-30T14:08:48;98147.53;;;18.98;59.79
81243;BME280;70716;50.074;14.496;2023-08-30T14:11:14;98137.66;;;18.94;58.77
81243;BME280;70716;50.074;14.496;2023-08-30T14:13:40;98146.34;;;18.99;58.06
81243;BME280;70716;50.074;14.496;2023-08-30T14:16:05;98142.44;;;19.04;59.03
81243;BME280;70716;50.074;14.496;2023-08-30T14:18:31;98141.22;;;19.08;58.34
81243;BME280;70716;50.074;14.496;2023-08-30T14:20:58;98138.09;;;19.13;57.56
81243;BME280;70716;50.074;14.496;2023-08-30T14:23:27;98148.34;;;19.09;56.07
81243;BME280;70716;50.074;14.496;2023-08-30T14:26:00;98138.47;;;19.08;57.75
81243;BME280;70716;50.074;14.496;2023-08-30T14:28:26;98145.19;;;19.04;56.47
81243;BME280;70716;50.074;14.496;2023-08-30T14:30:54;98138.84;;;18.96;57.01
81243;BME280;70716;50.074;14.496;2023-08-30T14:33:19;98134.09;;;18.90;56.74
81243;BME280;70716;50.074;14.496;2023-08-30T14:35:45;98140.38;;;18.83;58.87
81243;BME280;70716;50.074;14.496;2023-08-30T14:38:11;98141.53;;;18.78;58.66
81243;BME280;70716;50.074;14.496;2023-08-30T14:40:36;98132.47;;;18.82;59.67
81243;BME280;70716;50.074;14.496;2023-08-30T14:43:03;98140.69;;;18.71;59.93
81243;BME280;70716;50.074;14.496;2023-08-30T14:45:28;98129.28;;;18.72;60.30
81243;BME280;70716;50.074;14.496;2023-08-30T14:47:54;98147.38;;;18.66;60.23
81243;BME280;70716;50.074;14.496;2023-08-30T14:50:19;98140.66;;;18.60;60.87
81243;BME280;70716;50.074;14.496;2023-08-30T14:52:46;98144.19;;;18.61;60.74
81243;BME280;70716;50.074;14.496;2023-08-30T14:55:11;98145.78;;;18.65;61.86
81243;BME280;70716;50.074;14.496;2023-08-30T14:57:37;98147.66;;;18.54;62.13
81243;BME280;70716;50.074;14.496;2023-08-30T15:00:02;98145.28;;;18.49;60.65
81243;BME280;70716;50.074;14.496;2023-08-30T15:02:28;98157.50;;;18.44;61.35
81243;BME280;70716;50.074;14.496;2023-08-30T15:04:53;98153.50;;;18.35;62.04
81243;BME280;70716;50.074;14.496;2023-08-30T15:07:19;98155.16;;;18.46;62.72
81243;BME280;70716;50.074;14.496;2023-08-30T15:09:45;98144.03;;;18.36;60.70
81243;BME280;70716;50.074;14.496;2023-08-30T15:12:12;98150.72;;;18.31;61.63
81243;BME280;70716;50.074;14.496;2023-08-30T15:14:37;98151.13;;;18.37;62.07
81243;BME280;70716;50.074;14.496;2023-08-30T15:17:06;98149.19;;;18.37;60.88
81243;BME280;70716;50.074;14.496;2023-08-30T15:19:32;98149.53;;;18.32;60.55
81243;BME280;70716;50.074;14.496;2023-08-30T15:21:57;98147.16;;;18.31;61.09
81243;BME280;70716;50.074;14.496;2023-08-30T15:24:23;98147.97;;;18.35;61.12
81243;BME280;70716;50.074;14.496;2023-08-30T15:26:48;98148.34;;;18.30;60.68
81243;BME280;70716;50.074;14.496;2023-08-30T15:29:14;98149.53;;;18.32;61.25
81243;BME280;70716;50.074;14.496;2023-08-30T15:31:39;98150.28;;;18.26;61.12
81243;BME280;70716;50.074;14.496;2023-08-30T15:34:04;98149.47;;;18.22;61.88
81243;BME280;70716;50.074;14.496;2023-08-30T15:36:30;98152.25;;;18.25;61.99
81243;BME280;70716;50.074;14.496;2023-08-30T15:38:55;98148.72;;;18.28;61.61
81243;BME280;70716;50.074;14.496;2023-08-30T15:41:20;98152.69;;;18.31;61.46
81243;BME280;70716;50.074;14.496;2023-08-30T15:43:46;98153.41;;;18.24;62.16
81243;BME280;70716;50.074;14.496;2023-08-30T15:46:14;98151.41;;;18.18;61.75
81243;BME280;70716;50.074;14.496;2023-08-30T15:48:40;98147.47;;;18.19;62.60
81243;BME280;70716;50.074;14.496;2023-08-30T15:51:06;98147.09;;;18.20;62.04
81243;BME280;70716;50.074;14.496;2023-08-30T15:53:31;98147.88;;;18.21;62.58
81243;BME280;70716;50.074;14.496;2023-08-30T15:55:59;98150.28;;;18.26;62.80
81243;BME280;70716;50.074;14.496;2023-08-30T15:58:25;98146.31;;;18.23;62.49
81243;BME280;70716;50.074;14.496;2023-08-30T16:00:50;98149.03;;;18.16;61.47
81243;BME280;70716;50.074;14.496;2023-08-30T16:03:16;98147.78;;;18.10;62.58
81243;BME280;70716;50.074;14.496;2023-08-30T16:05:45;98147.78;;;18.06;62.21
81243;BME280;70716;50.074;14.496;2023-08-30T16:08:10;98147.75;;;18.03;62.22
81243;BME280;70716;50.074;14.496;2023-08-30T16:10:36;98153.69;;;18.08;62.58
81243;BME280;70716;50.074;14.496;2023-08-30T16:13:02;98150.13;;;18.04;63.35
81243;BME280;70716;50.074;14.496;2023-08-30T16:15:28;98156.34;;;17.94;62.70
81243;BME280;70716;50.074;14.496;2023-08-30T16:17:57;98154.75;;;17.93;62.47
81243;BME280;70716;50.074;14.496;2023-08-30T16:20:25;98152.06;;;18.00;63.19
81243;BME280;70716;50.074;14.496;2023-08-30T16:22:52;98150.03;;;17.94;62.58
81243;BME280;70716;50.074;14.496;2023-08-30T16:25:17;98155.56;;;17.97;62.59
81243;BME280;70716;50.074;14.496;2023-08-30T16:27:42;98159.09;;;17.94;61.75
81243;BME280;70716;50.074;14.496;2023-08-30T16:30:08;98157.03;;;17.80;62.80
81243;BME280;70716;50.074;14.496;2023-08-30T16:32:34;98153.88;;;17.78;63.65
81243;BME280;70716;50.074;14.496;2023-08-30T16:35:00;98151.50;;;17.77;63.47
81243;BME280;70716;50.074;14.496;2023-08-30T16:37:25;98151.50;;;17.77;64.04
81243;BME280;70716;50.074;14.496;2023-08-30T16:39:51;98155.06;;;17.81;63.57
81243;BME280;70716;50.074;14.496;2023-08-30T16:42:17;98145.63;;;17.82;63.59
81243;BME280;70716;50.074;14.496;2023-08-30T16:44:43;98149.94;;;17.79;64.43
81243;BME280;70716;50.074;14.496;2023-08-30T16:47:12;98151.06;;;17.75;64.97
81243;BME280;70716;50.074;14.496;2023-08-30T16:49:37;98142.00;;;17.74;65.00
81243;BME280;70716;50.074;14.496;2023-08-30T16:52:03;98143.94;;;17.70;65.05
81243;BME280;70716;50.074;14.496;2023-08-30T16:54:28;98149.50;;;17.74;65.38
81243;BME280;70716;50.074;14.496;2023-08-30T16:56:54;98145.16;;;17.73;65.84
81243;BME280;70716;50.074;14.496;2023-08-30T16:59:19;98153.03;;;17.74;65.99
81243;BME280;70716;50.074;14.496;2023-08-30T17:01:44;98148.28;;;17.71;65.53
81243;BME280;70716;50.074;14.496;2023-08-30T17:04:10;98155.75;;;17.71;67.44
81243;BME280;70716;50.074;14.496;2023-08-30T17:06:37;98151.31;;;17.63;66.38
81243;BME280;70716;50.074;14.496;2023-08-30T17:09:03;98153.66;;;17.61;67.03
81243;BME280;70716;50.074;14.496;2023-08-30T17:11:32;98154.84;;;17.60;67.33
81243;BME280;70716;50.074;14.496;2023-08-30T17:14:01;98150.53;;;17.62;67.49
81243;BME280;70716;50.074;14.496;2023-08-30T17:16:26;98152.47;;;17.58;67.76
81243;BME280;70716;50.074;14.496;2023-08-30T17:18:52;98154.84;;;17.60;68.70
81243;BME280;70716;50.074;14.496;2023-08-30T17:21:17;98157.16;;;17.54;67.26
81243;BME280;70716;50.074;14.496;2023-08-30T17:23:43;98150.06;;;17.53;68.55
81243;BME280;70716;50.074;14.496;2023-08-30T17:26:09;98153.66;;;17.61;69.49
81243;BME280;70716;50.074;14.496;2023-08-30T17:28:35;98155.72;;;17.67;67.72
81243;BME280;70716;50.074;14.496;2023-08-30T17:31:04;98149.75;;;17.62;66.63
81243;BME280;70716;50.074;14.496;2023-08-30T17:33:34;98158.69;;;17.52;66.63
81243;BME280;70716;50.074;14.496;2023-08-30T17:36:09;98161.72;;;17.39;67.92
81243;BME280;70716;50.074;14.496;2023-08-30T17:38:34;98160.88;;;17.35;67.54
81243;BME280;70716;50.074;14.496;2023-08-30T17:41:07;98163.63;;;17.35;68.33
81243;BME280;70716;50.074;14.496;2023-08-30T17:43:33;98161.16;;;17.23;68.22
81243;BME280;70716;50.074;14.496;2023-08-30T17:45:58;98158.84;;;17.25;69.01
81243;BME280;70716;50.074;14.496;2023-08-30T17:48:24;98164.25;;;17.18;67.59
81243;BME280;70716;50.074;14.496;2023-08-30T17:50:52;98159.03;;;17.09;69.15
81243;BME280;70716;50.074;14.496;2023-08-30T17:53:19;98164.03;;;17.00;69.34
81243;BME280;70716;50.074;14.496;2023-08-30T17:55:52;98163.53;;;16.91;69.40
81243;BME280;70716;50.074;14.496;2023-08-30T17:58:17;98164.19;;;16.81;69.25
81243;BME280;70716;50.074;14.496;2023-08-30T18:00:46;98163.72;;;16.75;70.06
81243;BME280;70716;50.074;14.496;2023-08-30T18:03:14;98165.28;;;16.73;70.14
81243;BME280;70716;50.074;14.496;2023-08-30T18:05:40;98164.81;;;16.67;71.72
81243;BME280;70716;50.074;14.496;2023-08-30T18:08:07;98171.91;;;16.68;70.48
81243;BME280;70716;50.074;14.496;2023-08-30T18:10:32;98174.63;;;16.65;70.74
81243;BME280;70716;50.074;14.496;2023-08-30T18:12:59;98169.78;;;16.58;71.46
81243;BME280;70716;50.074;14.496;2023-08-30T18:15:24;98169.72;;;16.55;71.95
81243;BME280;70716;50.074;14.496;2023-08-30T18:17:49;98169.31;;;16.52;71.60
81243;BME280;70716;50.074;14.496;2023-08-30T18:20:15;98178.66;;;16.48;72.18
81243;BME280;70716;50.074;14.496;2023-08-30T18:22:41;98173.06;;;16.41;71.78
81243;BME280;70716;50.074;14.496;2023-08-30T18:25:09;98188.03;;;16.43;72.59
81243;BME280;70716;50.074;14.496;2023-08-30T18:27:36;98189.13;;;16.39;72.62
81243;BME280;70716;50.074;14.496;2023-08-30T18:30:04;98177.28;;;16.35;73.03
81243;BME280;70716;50.074;14.496;2023-08-30T18:32:34;98183.53;;;16.32;73.10
